createdAt,value
2016-12-13T00:00:18.330Z,98.54
2016-12-13T00:01:19.016Z,98.54
2016-12-13T00:02:18.261Z,98.68
2016-12-13T00:03:18.268Z,98.87
2016-12-13T00:04:18.286Z,99.06
2016-12-13T00:05:18.284Z,98.59
2016-12-13T00:06:18.317Z,98.87
2016-12-13T00:07:18.328Z,99.35
2016-12-13T00:08:18.276Z,99.26
2016-12-13T00:09:18.315Z,98.97
2016-12-13T00:10:21.155Z,98.87
2016-12-13T00:11:18.307Z,98.68
2016-12-13T00:12:18.281Z,99.35
2016-12-13T00:13:18.304Z,98.87
2016-12-13T00:14:18.285Z,99.06
2016-12-13T00:15:18.292Z,99.06
2016-12-13T00:16:18.305Z,98.87
2016-12-13T00:17:18.293Z,99.82
2016-12-13T00:18:18.306Z,99.44
2016-12-13T00:19:18.259Z,99.99
2016-12-13T00:20:18.322Z,99.99
2016-12-13T00:21:18.298Z,99.99
2016-12-13T00:22:18.293Z,99.99
2016-12-13T00:23:18.290Z,99.91
2016-12-13T00:24:18.263Z,99.82
2016-12-13T00:25:18.343Z,99.82
2016-12-13T00:26:18.301Z,99.73
2016-12-13T00:27:18.354Z,99.35
2016-12-13T00:28:18.326Z,99.73
2016-12-13T00:29:18.273Z,99.99
2016-12-13T00:30:18.385Z,99.99
2016-12-13T00:31:18.295Z,99.99
2016-12-13T00:32:18.339Z,99.73
2016-12-13T00:33:18.298Z,99.91
2016-12-13T00:34:18.320Z,99.73
2016-12-13T00:35:18.403Z,99.99
2016-12-13T00:36:18.299Z,99.99
2016-12-13T00:37:19.555Z,99.58
2016-12-13T00:38:18.324Z,99.99
2016-12-13T00:39:18.343Z,99.99
2016-12-13T00:40:18.359Z,99.77
2016-12-13T00:41:18.303Z,99.96
2016-12-13T00:42:18.305Z,99.99
2016-12-13T00:43:18.330Z,99.99
2016-12-13T00:44:18.350Z,99.99
2016-12-13T00:45:18.374Z,99.87
2016-12-13T00:46:18.305Z,99.87
2016-12-13T00:47:18.325Z,99.99
2016-12-13T00:48:18.373Z,99.99
2016-12-13T00:49:18.351Z,99.99
2016-12-13T00:50:18.332Z,99.99
2016-12-13T00:51:18.357Z,99.99
2016-12-13T00:52:18.335Z,99.99
2016-12-13T00:53:18.354Z,99.99
2016-12-13T00:54:18.320Z,99.99
2016-12-13T00:55:18.356Z,99.99
2016-12-13T00:56:18.348Z,99.99
2016-12-13T00:57:18.399Z,99.99
2016-12-13T00:58:18.313Z,99.99
2016-12-13T00:59:18.403Z,99.99
2016-12-13T01:00:18.368Z,99.99
2016-12-13T01:01:18.367Z,99.99
2016-12-13T01:02:18.343Z,99.87
2016-12-13T01:03:18.308Z,99.99
2016-12-13T01:04:18.322Z,99.99
2016-12-13T01:05:18.420Z,99.99
2016-12-13T01:06:18.352Z,99.99
2016-12-13T01:07:18.375Z,99.99
2016-12-13T01:08:18.338Z,99.99
2016-12-13T01:09:18.373Z,99.99
2016-12-13T01:10:18.446Z,99.99
2016-12-13T01:11:18.426Z,99.99
2016-12-13T01:12:18.385Z,99.99
2016-12-13T01:13:18.348Z,99.99
2016-12-13T01:14:18.403Z,99.99
2016-12-13T01:15:18.419Z,99.87
2016-12-13T01:16:18.426Z,99.99
2016-12-13T01:17:18.356Z,99.99
2016-12-13T01:18:18.321Z,99.99
2016-12-13T01:19:18.399Z,99.99
2016-12-13T01:20:18.427Z,99.99
2016-12-13T01:21:18.367Z,99.99
2016-12-13T01:22:18.407Z,99.99
2016-12-13T01:23:18.334Z,99.99
2016-12-13T01:24:18.363Z,99.99
2016-12-13T01:25:18.365Z,99.99
2016-12-13T01:26:18.346Z,99.99
2016-12-13T01:27:18.410Z,99.99
2016-12-13T01:28:18.412Z,99.99
2016-12-13T01:29:18.416Z,99.99
2016-12-13T01:30:18.363Z,99.99
2016-12-13T01:31:18.326Z,99.99
2016-12-13T01:32:18.388Z,99.99
2016-12-13T01:33:18.425Z,99.99
2016-12-13T01:34:18.364Z,99.99
2016-12-13T01:35:18.407Z,99.99
2016-12-13T01:36:18.366Z,99.99
2016-12-13T01:37:18.366Z,99.99
2016-12-13T01:38:18.409Z,99.99
2016-12-13T01:39:18.354Z,99.99
2016-12-13T01:40:18.383Z,99.99
2016-12-13T01:41:18.422Z,99.99
2016-12-13T01:42:18.386Z,99.99
2016-12-13T01:43:18.399Z,99.99
2016-12-13T01:44:18.420Z,99.99
2016-12-13T01:45:18.402Z,99.99
2016-12-13T01:46:18.393Z,99.99
2016-12-13T01:47:18.383Z,99.99
2016-12-13T01:48:18.405Z,99.99
2016-12-13T01:49:18.377Z,99.99
2016-12-13T01:50:18.373Z,99.99
2016-12-13T01:51:18.395Z,99.99
2016-12-13T01:52:18.364Z,99.99
2016-12-13T01:53:18.419Z,99.99
2016-12-13T01:54:18.402Z,99.99
2016-12-13T01:55:18.380Z,99.99
2016-12-13T01:56:18.425Z,99.99
2016-12-13T01:57:18.391Z,99.99
2016-12-13T01:58:18.429Z,99.99
2016-12-13T01:59:18.389Z,99.99
2016-12-13T02:00:18.391Z,99.99
2016-12-13T02:01:18.391Z,99.99
2016-12-13T02:02:18.421Z,99.99
2016-12-13T02:03:18.392Z,99.99
2016-12-13T02:04:18.408Z,99.99
2016-12-13T02:05:18.396Z,99.99
2016-12-13T02:06:18.446Z,99.99
2016-12-13T02:07:18.429Z,99.99
2016-12-13T02:08:18.406Z,99.99
2016-12-13T02:09:18.385Z,99.99
2016-12-13T02:10:18.440Z,99.99
2016-12-13T02:11:18.396Z,99.99
2016-12-13T02:12:18.405Z,99.99
2016-12-13T02:13:18.404Z,99.99
2016-12-13T02:14:18.399Z,99.99
2016-12-13T02:15:18.361Z,99.99
2016-12-13T02:16:18.435Z,99.99
2016-12-13T02:17:18.425Z,99.99
2016-12-13T02:18:18.415Z,99.99
2016-12-13T02:19:18.447Z,99.99
2016-12-13T02:20:18.424Z,99.99
2016-12-13T02:21:18.384Z,99.99
2016-12-13T02:22:18.411Z,99.99
2016-12-13T02:23:18.401Z,99.99
2016-12-13T02:24:18.392Z,99.99
2016-12-13T02:25:18.418Z,99.99
2016-12-13T02:26:18.418Z,99.99
2016-12-13T02:27:18.471Z,99.99
2016-12-13T02:28:18.416Z,99.99
2016-12-13T02:29:18.425Z,99.99
2016-12-13T02:30:18.383Z,99.99
2016-12-13T02:31:18.404Z,99.99
2016-12-13T02:32:18.425Z,99.99
2016-12-13T02:33:18.431Z,99.99
2016-12-13T02:34:18.466Z,99.99
2016-12-13T02:35:18.471Z,99.99
2016-12-13T02:36:18.396Z,99.99
2016-12-13T02:37:18.431Z,99.99
2016-12-13T02:38:18.409Z,99.99
2016-12-13T02:39:18.442Z,99.99
2016-12-13T02:40:18.429Z,99.99
2016-12-13T02:41:18.456Z,99.99
2016-12-13T02:42:18.437Z,99.99
2016-12-13T02:43:18.938Z,99.99
2016-12-13T02:44:18.436Z,99.99
2016-12-13T02:45:18.449Z,99.99
2016-12-13T02:46:18.464Z,99.99
2016-12-13T02:47:18.463Z,99.99
2016-12-13T02:48:18.437Z,99.99
2016-12-13T02:49:18.442Z,99.99
2016-12-13T02:50:18.445Z,99.99
2016-12-13T02:51:18.455Z,99.99
2016-12-13T02:52:18.470Z,99.99
2016-12-13T02:53:18.465Z,99.99
2016-12-13T02:54:18.414Z,99.99
2016-12-13T02:55:18.529Z,99.99
2016-12-13T02:56:20.318Z,99.99
2016-12-13T02:57:18.406Z,99.99
2016-12-13T02:58:18.460Z,99.99
2016-12-13T02:59:18.448Z,99.99
2016-12-13T03:00:18.495Z,99.99
2016-12-13T03:01:18.459Z,99.99
2016-12-13T03:02:18.448Z,99.99
2016-12-13T03:03:18.435Z,99.99
2016-12-13T03:04:18.430Z,99.99
2016-12-13T03:05:18.440Z,99.99
2016-12-13T03:06:18.505Z,99.99
2016-12-13T03:07:18.468Z,99.99
2016-12-13T03:08:18.466Z,99.99
2016-12-13T03:09:18.469Z,99.99
2016-12-13T03:10:18.520Z,99.99
2016-12-13T03:11:18.509Z,99.99
2016-12-13T03:12:18.545Z,99.99
2016-12-13T03:13:18.456Z,99.99
2016-12-13T03:14:18.452Z,99.99
2016-12-13T03:15:18.452Z,99.99
2016-12-13T03:16:18.441Z,99.35
2016-12-13T03:17:18.487Z,99.99
2016-12-13T03:18:18.476Z,99.16
2016-12-13T03:19:18.471Z,99.06
2016-12-13T03:20:18.476Z,99.35
2016-12-13T03:21:18.469Z,99.44
2016-12-13T03:22:18.498Z,99.63
2016-12-13T03:23:18.458Z,99.63
2016-12-13T03:24:18.463Z,99.44
2016-12-13T03:25:19.086Z,99.16
2016-12-13T03:26:18.480Z,99.06
2016-12-13T03:27:18.542Z,98.87
2016-12-13T03:28:18.468Z,98.49
2016-12-13T03:29:18.463Z,97.92
2016-12-13T03:30:18.436Z,98.11
2016-12-13T03:31:18.488Z,98.11
2016-12-13T03:32:18.487Z,98.4
2016-12-13T03:33:18.572Z,98.3
2016-12-13T03:34:18.473Z,98.21
2016-12-13T03:35:18.479Z,98.16
2016-12-13T03:36:18.477Z,98.45
2016-12-13T03:37:18.485Z,97.69
2016-12-13T03:38:18.514Z,97.69
2016-12-13T03:39:18.537Z,97.74
2016-12-13T03:40:18.489Z,97.78
2016-12-13T03:41:18.516Z,96.93
2016-12-13T03:42:18.536Z,97.41
2016-12-13T03:43:18.489Z,96.74
2016-12-13T03:44:18.554Z,97.5
2016-12-13T03:45:18.517Z,96.93
2016-12-13T03:46:18.485Z,96.93
2016-12-13T03:47:18.514Z,97.12
2016-12-13T03:48:18.527Z,97.22
2016-12-13T03:49:18.518Z,97.22
2016-12-13T03:50:18.523Z,96.36
2016-12-13T03:51:18.531Z,97.12
2016-12-13T03:52:18.515Z,96.64
2016-12-13T03:53:18.496Z,96.08
2016-12-13T03:57:46.375Z,96.26
2016-12-13T03:58:46.364Z,96.17
2016-12-13T03:59:46.327Z,95.7
2016-12-13T04:00:46.376Z,95.6
2016-12-13T04:01:46.360Z,96.26
2016-12-13T04:02:46.321Z,96.26
2016-12-13T04:03:46.346Z,96.26
2016-12-13T04:04:46.296Z,95.98
2016-12-13T04:05:46.339Z,96.64
2016-12-13T04:06:46.318Z,95.79
2016-12-13T04:07:47.503Z,96.45
2016-12-13T04:08:46.376Z,95.89
2016-12-13T04:09:46.306Z,95.98
2016-12-13T04:10:46.315Z,96.17
2016-12-13T04:11:46.299Z,96.93
2016-12-13T04:12:46.341Z,95.7
2016-12-13T04:13:46.269Z,95.98
2016-12-13T04:14:46.360Z,96.74
2016-12-13T04:15:46.286Z,95.79
2016-12-13T04:16:46.321Z,95.7
2016-12-13T04:17:46.339Z,96.64
2016-12-13T04:18:46.283Z,95.79
2016-12-13T04:19:46.316Z,96.08
2016-12-13T04:20:46.339Z,95.41
2016-12-13T04:21:46.307Z,94.84
2016-12-13T04:22:46.334Z,95.51
2016-12-13T04:23:46.354Z,95.98
2016-12-13T04:24:46.349Z,96.36
2016-12-13T04:25:46.358Z,95.6
2016-12-13T04:26:46.360Z,95.51
2016-12-13T04:27:46.321Z,95.31
2016-12-13T04:28:46.344Z,94.93
2016-12-13T04:29:46.367Z,95.41
2016-12-13T04:30:46.343Z,95.41
2016-12-13T04:31:46.351Z,94.65
2016-12-13T04:32:46.355Z,95.51
2016-12-13T04:33:46.322Z,95.6
2016-12-13T04:34:46.324Z,95.6
2016-12-13T04:35:46.345Z,95.41
2016-12-13T04:36:46.344Z,95.31
2016-12-13T04:37:46.395Z,95.41
2016-12-13T04:38:46.353Z,94.93
2016-12-13T04:39:46.372Z,94.93
2016-12-13T04:40:46.381Z,95.51
2016-12-13T04:41:46.334Z,95.51
2016-12-13T04:42:46.373Z,95.31
2016-12-13T04:43:46.334Z,96.08
2016-12-13T04:44:46.362Z,95.51
2016-12-13T04:45:46.345Z,95.31
2016-12-13T04:46:46.330Z,95.41
2016-12-13T04:47:46.385Z,94.65
2016-12-13T04:48:46.361Z,95.03
2016-12-13T04:49:46.340Z,95.22
2016-12-13T04:50:46.347Z,95.41
2016-12-13T04:51:46.375Z,94.93
2016-12-13T04:52:46.354Z,94.56
2016-12-13T04:53:46.371Z,94.37
2016-12-13T04:54:46.361Z,94.08
2016-12-13T04:55:46.390Z,94.65
2016-12-13T04:56:46.363Z,94.37
2016-12-13T04:57:46.374Z,94.93
2016-12-13T04:58:46.329Z,94.84
2016-12-13T04:59:46.367Z,95.41
2016-12-13T05:00:46.366Z,95.31
2016-12-13T05:01:46.375Z,95.22
2016-12-13T05:02:46.416Z,95.22
2016-12-13T05:03:46.361Z,94.08
2016-12-13T05:04:46.447Z,93.41
2016-12-13T05:05:46.368Z,94.37
2016-12-13T05:06:46.355Z,93.89
2016-12-13T05:07:46.413Z,93.7
2016-12-13T05:08:46.341Z,94.46
2016-12-13T05:09:46.411Z,94.46
2016-12-13T05:10:46.377Z,94.18
2016-12-13T05:11:46.399Z,93.6
2016-12-13T05:12:46.399Z,94.37
2016-12-13T05:13:46.400Z,94.18
2016-12-13T05:14:46.419Z,93.99
2016-12-13T05:15:46.402Z,93.8
2016-12-13T05:16:46.394Z,93.89
2016-12-13T05:17:46.405Z,94.46
2016-12-13T05:18:46.356Z,94.18
2016-12-13T05:19:46.371Z,94.46
2016-12-13T05:20:46.465Z,93.8
2016-12-13T05:21:46.372Z,94.46
2016-12-13T05:22:46.411Z,94.46
2016-12-13T05:23:46.434Z,94.27
2016-12-13T05:24:46.420Z,94.18
2016-12-13T05:25:46.399Z,94.27
2016-12-13T05:26:46.446Z,93.89
2016-12-13T05:27:46.423Z,93.8
2016-12-13T05:28:46.422Z,94.27
2016-12-13T05:29:46.394Z,93.99
2016-12-13T05:30:46.423Z,94.56
2016-12-13T05:31:46.405Z,94.08
2016-12-13T05:32:46.467Z,93.7
2016-12-13T05:33:46.403Z,94.18
2016-12-13T05:34:46.474Z,93.89
2016-12-13T05:35:46.385Z,93.7
2016-12-13T05:36:46.404Z,94.27
2016-12-13T05:37:46.425Z,93.8
2016-12-13T05:38:46.412Z,93.6
2016-12-13T05:39:46.408Z,93.7
2016-12-13T05:40:46.423Z,93.6
2016-12-13T05:41:46.465Z,94.08
2016-12-13T05:42:46.437Z,93.99
2016-12-13T05:43:46.411Z,93.99
2016-12-13T05:44:46.422Z,94.27
2016-12-13T05:45:46.453Z,93.6
2016-12-13T05:46:46.420Z,93.99
2016-12-13T05:47:46.466Z,93.8
2016-12-13T05:48:46.459Z,93.89
2016-12-13T05:49:46.429Z,93.32
2016-12-13T05:50:46.487Z,93.7
2016-12-13T05:51:46.438Z,93.41
2016-12-13T05:52:46.464Z,93.6
2016-12-13T05:53:46.444Z,94.37
2016-12-13T05:54:46.452Z,93.32
2016-12-13T05:55:46.447Z,93.6
2016-12-13T05:56:46.423Z,93.13
2016-12-13T05:57:46.463Z,93.41
2016-12-13T05:58:46.461Z,93.13
2016-12-13T05:59:47.084Z,93.41
2016-12-13T06:00:46.432Z,92.85
2016-12-13T06:01:46.483Z,93.13
2016-12-13T06:02:46.541Z,93.04
2016-12-13T06:03:46.418Z,93.04
2016-12-13T06:04:46.443Z,93.89
2016-12-13T06:05:46.505Z,93.32
2016-12-13T06:06:46.448Z,93.8
2016-12-13T06:07:46.487Z,93.23
2016-12-13T06:08:46.474Z,94.08
2016-12-13T06:09:46.471Z,93.6
2016-12-13T06:10:46.480Z,93.6
2016-12-13T06:11:46.460Z,92.75
2016-12-13T06:12:46.507Z,93.32
2016-12-13T06:13:46.448Z,92.94
2016-12-13T06:14:46.465Z,92.37
2016-12-13T06:15:46.483Z,93.41
2016-12-13T06:16:46.564Z,93.23
2016-12-13T06:17:47.054Z,93.6
2016-12-13T06:18:46.713Z,93.32
2016-12-13T06:19:46.545Z,93.6
2016-12-13T06:20:47.168Z,93.51
2016-12-13T06:21:47.262Z,93.32
2016-12-13T06:22:46.508Z,93.23
2016-12-13T06:23:49.248Z,93.32
2016-12-13T06:24:46.490Z,93.04
2016-12-13T06:25:46.502Z,93.6
2016-12-13T06:26:47.515Z,93.8
2016-12-13T06:27:46.489Z,93.7
2016-12-13T06:28:46.546Z,93.04
2016-12-13T06:29:47.168Z,93.8
2016-12-13T06:30:46.490Z,93.8
2016-12-13T06:31:46.464Z,93.41
2016-12-13T06:32:46.545Z,93.23
2016-12-13T06:33:46.646Z,93.6
2016-12-13T06:34:46.538Z,93.7
2016-12-13T06:35:46.505Z,93.51
2016-12-13T06:36:46.485Z,93.41
2016-12-13T06:37:46.545Z,93.8
2016-12-13T06:38:46.503Z,93.32
2016-12-13T06:39:46.572Z,93.32
2016-12-13T06:40:46.537Z,93.23
2016-12-13T06:41:46.542Z,93.41
2016-12-13T06:42:46.533Z,92.94
2016-12-13T06:43:46.484Z,93.32
2016-12-13T06:44:46.499Z,93.04
2016-12-13T06:45:46.489Z,93.41
2016-12-13T06:46:46.534Z,92.47
2016-12-13T06:47:46.560Z,93.04
2016-12-13T06:48:46.495Z,93.23
2016-12-13T06:49:46.492Z,93.04
2016-12-13T06:50:46.491Z,93.13
2016-12-13T06:51:46.560Z,93.13
2016-12-13T06:52:46.554Z,92.66
2016-12-13T06:53:46.535Z,92.18
2016-12-13T06:54:46.502Z,91.99
2016-12-13T06:55:46.513Z,92.47
2016-12-13T06:56:46.551Z,92.85
2016-12-13T06:57:46.532Z,92.85
2016-12-13T06:58:46.527Z,92.37
2016-12-13T06:59:46.524Z,92.85
2016-12-13T07:00:46.499Z,92.47
2016-12-13T07:01:46.555Z,91.89
2016-12-13T07:02:46.621Z,92.66
2016-12-13T07:03:46.526Z,92.18
2016-12-13T07:04:46.552Z,91.99
2016-12-13T07:05:46.520Z,92.09
2016-12-13T07:06:46.511Z,91.99
2016-12-13T07:07:47.228Z,92.75
2016-12-13T07:08:46.617Z,92.37
2016-12-13T07:09:46.506Z,92.66
2016-12-13T07:10:46.520Z,92.94
2016-12-13T07:11:46.595Z,93.51
2016-12-13T07:12:46.572Z,92.94
2016-12-13T07:13:46.541Z,93.13
2016-12-13T07:14:46.550Z,93.13
2016-12-13T07:15:46.510Z,93.13
2016-12-13T07:16:46.597Z,93.41
2016-12-13T07:17:46.564Z,93.23
2016-12-13T07:18:46.545Z,93.51
2016-12-13T07:19:46.580Z,93.18
2016-12-13T07:20:46.549Z,93.04
2016-12-13T07:21:46.545Z,93.41
2016-12-13T07:22:46.572Z,93.27
2016-12-13T07:23:46.533Z,92.37
2016-12-13T07:24:46.556Z,92.94
2016-12-13T07:25:46.553Z,92.23
2016-12-13T07:26:46.558Z,92.47
2016-12-13T07:27:46.664Z,92.94
2016-12-13T07:28:46.599Z,92.94
2016-12-13T07:29:46.555Z,93.46
2016-12-13T07:30:46.595Z,92.8
2016-12-13T07:31:46.549Z,92.66
2016-12-13T07:32:46.598Z,93.32
2016-12-13T07:33:46.548Z,94.03
2016-12-13T07:34:46.586Z,92.71
2016-12-13T07:35:46.676Z,92.56
2016-12-13T07:36:46.570Z,93.23
2016-12-13T07:37:46.609Z,92.99
2016-12-13T07:38:46.558Z,93.6
2016-12-13T07:39:46.580Z,93.94
2016-12-13T07:40:46.580Z,94.74
2016-12-13T07:41:46.564Z,94.32
2016-12-13T07:42:46.621Z,94.93
2016-12-13T07:43:46.580Z,96.31
2016-12-13T07:44:46.533Z,96.08
2016-12-13T07:45:46.566Z,96.03
2016-12-13T07:46:46.571Z,95.22
2016-12-13T07:47:46.613Z,96.45
2016-12-13T07:48:46.607Z,97.12
2016-12-13T07:49:46.587Z,96.93
2016-12-13T07:50:46.565Z,97.02
2016-12-13T07:51:46.576Z,97.31
2016-12-13T07:52:46.632Z,97.69
2016-12-13T07:53:46.586Z,98.45
2016-12-13T07:54:46.707Z,97.88
2016-12-13T07:55:46.688Z,97.5
2016-12-13T07:56:46.658Z,97.69
2016-12-13T07:57:46.669Z,98.35
2016-12-13T07:58:46.616Z,98.35
2016-12-13T07:59:46.592Z,98.73
2016-12-13T08:00:46.630Z,99.4
2016-12-13T08:01:46.586Z,98.83
2016-12-13T08:02:46.621Z,99.11
2016-12-13T08:03:46.652Z,99.3
2016-12-13T08:04:46.616Z,99.02
2016-12-13T08:05:46.605Z,99.49
2016-12-13T08:06:46.605Z,99.49
2016-12-13T08:07:46.646Z,99.77
2016-12-13T08:08:46.600Z,99.97
2016-12-13T08:09:46.600Z,99.99
2016-12-13T08:10:46.653Z,99.99
2016-12-13T08:11:46.609Z,99.99
2016-12-13T08:12:46.606Z,99.99
2016-12-13T08:13:46.595Z,99.99
2016-12-13T08:14:46.604Z,99.99
2016-12-13T08:15:46.583Z,99.99
2016-12-13T08:16:46.671Z,99.99
2016-12-13T08:17:46.659Z,99.99
2016-12-13T08:18:46.594Z,99.99
2016-12-13T08:19:46.603Z,99.99
2016-12-13T08:20:46.616Z,99.99
2016-12-13T08:21:46.616Z,99.99
2016-12-13T08:22:46.639Z,99.99
2016-12-13T08:23:46.656Z,99.99
2016-12-13T08:24:46.625Z,99.99
2016-12-13T08:25:46.645Z,99.99
2016-12-13T08:26:46.646Z,99.99
2016-12-13T08:27:46.631Z,99.99
2016-12-13T08:28:46.627Z,99.99
2016-12-13T08:29:46.646Z,99.99
2016-12-13T08:30:46.611Z,99.99
2016-12-13T08:31:46.624Z,99.99
2016-12-13T08:32:46.670Z,99.99
2016-12-13T08:33:46.675Z,99.99
2016-12-13T08:34:46.654Z,99.99
2016-12-13T08:35:46.589Z,99.99
2016-12-13T08:36:46.636Z,99.99
2016-12-13T08:37:46.642Z,99.99
2016-12-13T08:38:46.648Z,99.99
2016-12-13T08:39:46.686Z,99.99
2016-12-13T08:40:46.652Z,99.99
2016-12-13T08:41:46.710Z,99.99
2016-12-13T08:42:46.686Z,99.99
2016-12-13T08:43:46.635Z,99.99
2016-12-13T08:44:46.693Z,99.99
2016-12-13T08:45:46.657Z,99.99
2016-12-13T08:46:46.665Z,99.99
2016-12-13T08:47:46.697Z,99.99
2016-12-13T08:48:46.664Z,99.99
2016-12-13T08:49:46.640Z,99.99
2016-12-13T08:50:46.706Z,99.99
2016-12-13T08:51:46.643Z,99.99
2016-12-13T08:52:46.669Z,99.99
2016-12-13T08:53:46.661Z,99.99
2016-12-13T08:54:46.655Z,99.99
2016-12-13T08:55:46.654Z,99.99
2016-12-13T08:56:46.633Z,99.99
2016-12-13T08:57:46.692Z,99.99
2016-12-13T08:58:46.717Z,99.99
2016-12-13T08:59:46.704Z,99.99
2016-12-13T09:00:46.716Z,99.99
2016-12-13T09:01:46.717Z,99.99
2016-12-13T09:02:46.697Z,99.99
2016-12-13T09:03:46.687Z,99.99
2016-12-13T09:04:46.680Z,99.99
2016-12-13T09:05:46.667Z,99.99
2016-12-13T09:06:46.681Z,99.99
2016-12-13T09:07:46.714Z,99.99
2016-12-13T09:08:46.685Z,99.99
2016-12-13T09:09:46.686Z,99.99
2016-12-13T09:10:46.716Z,99.99
2016-12-13T09:11:46.716Z,99.99
2016-12-13T09:12:46.718Z,99.99
2016-12-13T09:13:46.715Z,99.99
2016-12-13T09:14:46.685Z,99.99
2016-12-13T09:15:46.674Z,99.99
2016-12-13T09:16:47.446Z,99.99
2016-12-13T09:17:46.693Z,99.99
2016-12-13T09:18:46.695Z,99.99
2016-12-13T09:19:46.706Z,99.99
2016-12-13T09:20:46.717Z,99.99
2016-12-13T09:21:46.695Z,99.99
2016-12-13T09:22:46.708Z,99.99
2016-12-13T09:23:46.687Z,99.99
2016-12-13T09:24:46.705Z,99.99
2016-12-13T09:25:46.660Z,99.99
2016-12-13T09:26:46.748Z,99.99
2016-12-13T09:27:46.750Z,99.99
2016-12-13T09:28:46.742Z,99.99
2016-12-13T09:29:47.394Z,99.99
2016-12-13T09:30:46.790Z,99.99
2016-12-13T09:31:46.689Z,99.99
2016-12-13T09:32:46.773Z,99.99
2016-12-13T09:33:46.690Z,99.99
2016-12-13T09:34:46.743Z,99.99
2016-12-13T09:35:46.752Z,99.99
2016-12-13T09:36:46.761Z,99.99
2016-12-13T09:37:46.790Z,99.99
2016-12-13T09:38:46.829Z,99.99
2016-12-13T09:39:46.866Z,99.99
2016-12-13T09:40:46.746Z,99.99
2016-12-13T09:41:46.747Z,99.99
2016-12-13T09:42:46.787Z,99.99
2016-12-13T09:43:46.750Z,99.99
2016-12-13T09:44:46.738Z,99.99
2016-12-13T09:45:47.696Z,99.99
2016-12-13T09:46:46.731Z,99.99
2016-12-13T09:47:46.724Z,99.99
2016-12-13T09:48:46.748Z,99.99
2016-12-13T09:49:46.705Z,99.99
2016-12-13T09:50:46.796Z,99.99
2016-12-13T09:51:46.737Z,99.99
2016-12-13T09:52:46.759Z,99.99
2016-12-13T09:53:46.750Z,99.99
2016-12-13T09:54:46.738Z,99.99
2016-12-13T09:55:46.729Z,99.99
2016-12-13T09:56:46.768Z,99.99
2016-12-13T09:57:46.799Z,99.99
2016-12-13T09:58:46.743Z,99.99
2016-12-13T09:59:47.401Z,99.99
2016-12-13T10:00:46.753Z,99.99
2016-12-13T10:01:46.751Z,99.99
2016-12-13T10:02:46.800Z,99.99
2016-12-13T10:03:46.797Z,99.99
2016-12-13T10:04:46.784Z,99.99
2016-12-13T10:05:46.795Z,99.99
2016-12-13T10:06:46.748Z,99.99
2016-12-13T10:07:46.761Z,99.99
2016-12-13T10:08:46.833Z,99.99
2016-12-13T10:09:46.752Z,99.99
2016-12-13T10:10:46.753Z,99.99
2016-12-13T10:11:46.766Z,99.99
2016-12-13T10:12:46.797Z,99.99
2016-12-13T10:13:46.775Z,99.99
2016-12-13T10:14:47.453Z,99.99
2016-12-13T10:15:46.757Z,99.99
2016-12-13T10:16:46.786Z,99.99
2016-12-13T10:17:46.744Z,99.99
2016-12-13T10:18:46.745Z,99.99
2016-12-13T10:19:46.768Z,99.99
2016-12-13T10:20:46.763Z,99.99
2016-12-13T10:21:46.730Z,99.99
2016-12-13T10:22:46.774Z,99.99
2016-12-13T10:23:46.759Z,99.99
2016-12-13T10:24:46.782Z,99.99
2016-12-13T10:25:46.781Z,99.99
2016-12-13T10:26:46.808Z,99.99
2016-12-13T10:27:46.802Z,99.99
2016-12-13T10:28:46.763Z,99.99
2016-12-13T10:29:46.776Z,99.99
2016-12-13T10:30:46.806Z,99.99
2016-12-13T10:31:46.763Z,99.99
2016-12-13T10:32:46.825Z,99.99
2016-12-13T10:33:46.798Z,99.99
2016-12-13T10:34:46.806Z,99.99
2016-12-13T10:35:46.849Z,99.99
2016-12-13T10:36:46.787Z,99.99
2016-12-13T10:37:46.824Z,99.99
2016-12-13T10:38:46.767Z,99.99
2016-12-13T10:39:46.772Z,99.99
2016-12-13T10:40:46.794Z,99.99
2016-12-13T10:41:47.038Z,99.99
2016-12-13T10:42:46.911Z,99.99
2016-12-13T10:43:46.836Z,99.99
2016-12-13T10:44:46.888Z,99.99
2016-12-13T10:45:46.805Z,99.99
2016-12-13T10:46:46.803Z,99.99
2016-12-13T10:47:46.810Z,99.99
2016-12-13T10:48:46.789Z,99.99
2016-12-13T10:49:46.806Z,99.99
2016-12-13T10:50:46.777Z,99.99
2016-12-13T10:51:46.810Z,99.99
2016-12-13T10:52:46.870Z,99.99
2016-12-13T10:53:46.846Z,99.99
2016-12-13T10:54:46.838Z,99.99
2016-12-13T10:55:46.806Z,99.99
2016-12-13T10:56:46.829Z,99.99
2016-12-13T10:57:46.866Z,99.99
2016-12-13T10:58:46.821Z,99.99
2016-12-13T10:59:46.828Z,99.99
2016-12-13T11:00:46.868Z,99.99
2016-12-13T11:01:47.187Z,99.99
2016-12-13T11:02:46.937Z,99.99
2016-12-13T11:03:46.981Z,99.99
2016-12-13T11:04:46.865Z,99.99
2016-12-13T11:05:46.856Z,99.99
2016-12-13T11:06:46.851Z,99.99
2016-12-13T11:07:47.058Z,99.99
2016-12-13T11:08:46.817Z,99.99
2016-12-13T11:09:46.830Z,99.99
2016-12-13T11:10:46.845Z,99.99
2016-12-13T11:11:46.843Z,99.99
2016-12-13T11:12:46.872Z,99.99
2016-12-13T11:13:46.836Z,99.99
2016-12-13T11:14:46.838Z,99.99
2016-12-13T11:15:46.849Z,99.99
2016-12-13T11:16:46.821Z,99.99
2016-12-13T11:17:46.894Z,99.99
2016-12-13T11:18:46.853Z,99.99
2016-12-13T11:19:46.805Z,99.99
2016-12-13T11:20:46.886Z,99.99
2016-12-13T11:21:46.865Z,99.99
2016-12-13T11:22:46.876Z,99.99
2016-12-13T11:23:46.928Z,99.99
2016-12-13T11:25:03.291Z,99.99
2016-12-13T11:26:03.035Z,99.99
2016-12-13T11:27:02.965Z,99.99
2016-12-13T11:28:02.977Z,99.99
2016-12-13T11:29:02.961Z,99.99
2016-12-13T11:30:02.938Z,99.99
2016-12-13T11:31:03.016Z,99.99
2016-12-13T11:32:02.961Z,99.99
2016-12-13T11:33:03.072Z,99.99
2016-12-13T11:34:02.893Z,99.99
2016-12-13T11:35:02.978Z,99.99
2016-12-13T11:36:02.977Z,99.99
2016-12-13T11:37:02.972Z,99.99
2016-12-13T11:38:03.034Z,99.99
2016-12-13T11:39:02.907Z,99.99
2016-12-13T11:40:02.945Z,99.99
2016-12-13T11:41:02.998Z,99.99
2016-12-13T11:42:03.005Z,99.99
2016-12-13T11:43:03.007Z,99.99
2016-12-13T11:44:02.978Z,99.99
2016-12-13T11:45:02.946Z,99.99
2016-12-13T11:46:02.906Z,99.99
2016-12-13T11:47:02.957Z,99.99
2016-12-13T11:48:02.964Z,99.99
2016-12-13T11:49:02.986Z,99.99
2016-12-13T11:50:03.038Z,99.99
2016-12-13T11:51:02.987Z,99.99
2016-12-13T11:52:03.039Z,99.99
2016-12-13T11:53:02.964Z,99.99
2016-12-13T11:54:02.996Z,99.99
2016-12-13T11:55:02.956Z,99.99
2016-12-13T11:56:02.951Z,99.84
2016-12-13T11:57:03.623Z,99.99
2016-12-13T11:58:03.007Z,99.99
2016-12-13T11:59:02.979Z,99.99
2016-12-13T12:00:02.986Z,99.64
2016-12-13T12:01:02.979Z,99.93
2016-12-13T12:02:03.053Z,99.99
2016-12-13T12:03:03.019Z,99.99
2016-12-13T12:04:03.004Z,99.99
2016-12-13T12:05:02.984Z,99.99
2016-12-13T12:06:02.969Z,99.99
2016-12-13T12:07:03.235Z,99.99
2016-12-13T12:08:03.029Z,99.99
2016-12-13T12:09:02.989Z,99.99
2016-12-13T12:10:03.017Z,99.99
2016-12-13T12:11:02.999Z,99.99
2016-12-13T12:12:03.092Z,99.99
2016-12-13T12:13:03.068Z,99.99
2016-12-13T12:14:02.977Z,99.99
2016-12-13T12:15:03.150Z,99.99
2016-12-13T12:16:03.084Z,99.99
2016-12-13T12:17:03.016Z,99.99
2016-12-13T12:18:03.035Z,99.99
2016-12-13T12:19:03.038Z,99.99
2016-12-13T12:20:03.013Z,99.99
2016-12-13T12:21:03.097Z,99.99
2016-12-13T12:22:03.065Z,99.99
2016-12-13T12:23:03.211Z,99.99
2016-12-13T12:24:03.014Z,99.99
2016-12-13T12:25:03.011Z,99.99
2016-12-13T12:26:03.030Z,99.99
2016-12-13T12:27:03.261Z,99.99
2016-12-13T12:28:03.059Z,99.99
2016-12-13T12:29:03.177Z,99.74
2016-12-13T12:30:03.009Z,99.99
2016-12-13T12:31:03.111Z,99.99
2016-12-13T12:32:03.043Z,99.99
2016-12-13T12:33:02.997Z,99.99
2016-12-13T12:34:03.052Z,99.99
2016-12-13T12:35:03.561Z,99.99
2016-12-13T12:36:03.080Z,99.99
2016-12-13T12:37:03.111Z,99.99
2016-12-13T12:38:03.088Z,99.99
2016-12-13T12:39:03.197Z,99.99
2016-12-13T12:40:03.011Z,99.99
2016-12-13T12:41:03.201Z,99.99
2016-12-13T12:42:03.040Z,99.99
2016-12-13T12:43:03.049Z,99.99
2016-12-13T12:44:03.060Z,99.93
2016-12-13T12:45:03.125Z,99.74
2016-12-13T12:46:03.038Z,99.74
2016-12-13T12:47:03.051Z,99.74
2016-12-13T12:48:03.093Z,99.99
2016-12-13T12:49:03.051Z,99.55
2016-12-13T12:50:03.136Z,99.55
2016-12-13T12:51:03.077Z,99.99
2016-12-13T12:52:03.113Z,99.64
2016-12-13T12:53:03.068Z,99.99
2016-12-13T12:54:03.071Z,99.99
2016-12-13T12:55:03.230Z,99.99
2016-12-13T12:56:03.075Z,99.99
2016-12-13T12:57:03.363Z,99.99
2016-12-13T12:58:03.147Z,99.99